createdAt,value
2023-12-23T00:00:21.860Z,99130.75
2023-12-23T00:00:53.594Z,99133.25
2023-12-23T00:01:26.581Z,99136.06
2023-12-23T00:01:58.297Z,99135.38
2023-12-23T00:02:29.870Z,99135.22
2023-12-23T00:03:01.662Z,99140.41
2023-12-23T00:03:33.285Z,99137.59
2023-12-23T00:04:04.935Z,99144.75
2023-12-23T00:04:36.611Z,99136.78
2023-12-23T00:05:08.636Z,99140.41
2023-12-23T00:05:40.447Z,99155.34
2023-12-23T00:06:12.167Z,99156.31
2023-12-23T00:06:43.807Z,99139.44
2023-12-23T00:07:15.532Z,99148.34
2023-12-23T00:07:47.246Z,99151.16
2023-12-23T00:08:18.902Z,99147.53
2023-12-23T00:08:50.532Z,99138.56
2023-12-23T00:09:22.130Z,99151.00
2023-12-23T00:09:53.724Z,99155.50
2023-12-23T00:10:25.390Z,99152.84
2023-12-23T00:10:57.138Z,99143.19
2023-12-23T00:11:28.773Z,99158.00
2023-12-23T00:12:00.341Z,99144.88
2023-12-23T00:12:32.162Z,99151.00
2023-12-23T00:13:06.689Z,99156.31
2023-12-23T00:13:38.286Z,99159.81
2023-12-23T00:14:09.954Z,99160.09
2023-12-23T00:14:41.582Z,99164.28
2023-12-23T00:15:13.251Z,99158.00
2023-12-23T00:15:44.882Z,99162.31
2023-12-23T00:16:16.477Z,99154.50
2023-12-23T00:16:48.055Z,99152.84
2023-12-23T00:17:19.933Z,99150.03
2023-12-23T00:17:51.775Z,99165.09
2023-12-23T00:18:23.975Z,99167.22
2023-12-23T00:18:55.895Z,99158.97
2023-12-23T00:19:27.714Z,99165.84
2023-12-23T00:19:59.740Z,99165.09
2023-12-23T00:20:31.643Z,99165.97
2023-12-23T00:21:03.382Z,99163.31
2023-12-23T00:21:35.144Z,99165.09
2023-12-23T00:22:06.815Z,99170.41
2023-12-23T00:22:38.558Z,99158.28
2023-12-23T00:23:10.200Z,99162.47
2023-12-23T00:23:41.815Z,99166.78
2023-12-23T00:24:13.548Z,99166.09
2023-12-23T00:24:45.191Z,99164.28
2023-12-23T00:25:16.849Z,99155.34
2023-12-23T00:25:48.493Z,99160.94
2023-12-23T00:26:20.086Z,99162.59
2023-12-23T00:26:51.663Z,99168.75
2023-12-23T00:27:23.309Z,99164.56
2023-12-23T00:27:54.918Z,99166.25
2023-12-23T00:28:26.527Z,99172.38
2023-12-23T00:28:58.308Z,99171.28
2023-12-23T00:29:30.059Z,99165.09
2023-12-23T00:30:01.777Z,99174.91
2023-12-23T00:30:33.581Z,99170.56
2023-12-23T00:31:05.167Z,99177.69
2023-12-23T00:31:36.780Z,99174.22
2023-12-23T00:32:08.451Z,99186.63
2023-12-23T00:32:40.187Z,99184.69
2023-12-23T00:33:12.006Z,99187.19
2023-12-23T00:33:43.718Z,99190.00
2023-12-23T00:34:15.392Z,99184.81
2023-12-23T00:34:47.074Z,99192.78
2023-12-23T00:35:18.668Z,99189.13
2023-12-23T00:35:50.334Z,99196.28
2023-12-23T00:36:21.956Z,99197.09
2023-12-23T00:36:53.705Z,99182.03
2023-12-23T00:37:25.378Z,99192.66
2023-12-23T00:37:57.025Z,99196.13
2023-12-23T00:38:28.756Z,99192.66
2023-12-23T00:39:03.268Z,99190.97
2023-12-23T00:39:35.029Z,99190.97
2023-12-23T00:40:07.028Z,99196.13
2023-12-23T00:40:38.659Z,99194.44
2023-12-23T00:41:10.436Z,99192.78
2023-12-23T00:41:42.572Z,99197.25
2023-12-23T00:42:14.216Z,99196.97
2023-12-23T00:42:45.847Z,99193.47
2023-12-23T00:43:17.516Z,99195.31
2023-12-23T00:43:49.611Z,99188.16
2023-12-23T00:44:21.218Z,99190.81
2023-12-23T00:44:52.882Z,99197.09
2023-12-23T00:45:24.454Z,99199.63
2023-12-23T00:45:56.069Z,99191.66
2023-12-23T00:46:27.723Z,99184.69
2023-12-23T00:46:59.297Z,99193.47
2023-12-23T00:47:35.104Z,99190.13
2023-12-23T00:48:09.220Z,99191.78
2023-12-23T00:48:41.160Z,99192.66
2023-12-23T00:49:12.932Z,99199.75
2023-12-23T00:49:44.516Z,99198.09
2023-12-23T00:50:16.241Z,99194.59
2023-12-23T00:50:47.937Z,99192.78
2023-12-23T00:51:19.490Z,99198.09
2023-12-23T00:51:51.111Z,99197.09
2023-12-23T00:52:22.763Z,99201.59
2023-12-23T00:52:54.518Z,99196.41
2023-12-23T00:53:26.135Z,99190.97
2023-12-23T00:53:57.691Z,99195.44
2023-12-23T00:54:29.289Z,99194.44
2023-12-23T00:55:00.894Z,99193.47
2023-12-23T00:55:32.317Z,99199.63
2023-12-23T00:56:03.840Z,99201.16
2023-12-23T00:56:35.310Z,99195.84
2023-12-23T00:57:06.706Z,99185.22
2023-12-23T00:57:38.156Z,99192.50
2023-12-23T00:58:09.602Z,99183.56
2023-12-23T00:58:40.971Z,99183.56
2023-12-23T00:59:12.554Z,99183.56
2023-12-23T00:59:44.017Z,99180.91
2023-12-23T01:00:15.711Z,99194.16
2023-12-23T01:00:47.343Z,99187.19
2023-12-23T01:01:18.930Z,99179.94
2023-12-23T01:01:50.648Z,99188.56
2023-12-23T01:02:22.203Z,99205.50
2023-12-23T01:02:53.696Z,99189.44
2023-12-23T01:03:25.260Z,99196.41
2023-12-23T01:03:56.878Z,99191.09
2023-12-23T01:04:28.625Z,99201.72
2023-12-23T01:05:00.190Z,99201.84
2023-12-23T01:05:31.798Z,99192.50
2023-12-23T01:06:03.345Z,99187.91
2023-12-23T01:06:34.970Z,99193.88
2023-12-23T01:07:06.527Z,99203.53
2023-12-23T01:07:38.069Z,99192.91
2023-12-23T01:08:09.679Z,99192.91
2023-12-23T01:08:41.126Z,99192.91
2023-12-23T01:09:12.615Z,99192.09
2023-12-23T01:09:44.194Z,99191.09
2023-12-23T01:10:15.685Z,99191.38
2023-12-23T01:10:47.179Z,99200.88
2023-12-23T01:11:18.766Z,99185.78
2023-12-23T01:11:50.277Z,99191.09
2023-12-23T01:12:21.765Z,99182.31
2023-12-23T01:12:53.557Z,99181.63
2023-12-23T01:13:25.840Z,99177.13
2023-12-23T01:13:57.372Z,99185.22
2023-12-23T01:14:28.945Z,99177.28
2023-12-23T01:15:00.460Z,99177.97
2023-12-23T01:15:31.904Z,99181.63
2023-12-23T01:16:03.531Z,99176.31
2023-12-23T01:16:35.030Z,99178.97
2023-12-23T01:17:06.666Z,99179.94
2023-12-23T01:17:38.240Z,99175.59
2023-12-23T01:18:09.909Z,99179.09
2023-12-23T01:18:41.569Z,99174.63
2023-12-23T01:19:13.338Z,99178.97
2023-12-23T01:19:44.988Z,99171.81
2023-12-23T01:20:16.691Z,99180.75
2023-12-23T01:20:48.235Z,99176.44
2023-12-23T01:21:19.780Z,99184.28
2023-12-23T01:21:51.313Z,99180.75
2023-12-23T01:22:22.915Z,99181.63
2023-12-23T01:22:54.442Z,99190.53
2023-12-23T01:23:26.109Z,99183.28
2023-12-23T01:23:57.715Z,99181.63
2023-12-23T01:24:29.254Z,99175.31
2023-12-23T01:25:00.777Z,99185.09
2023-12-23T01:25:32.333Z,99185.22
2023-12-23T01:26:03.945Z,99183.28
2023-12-23T01:26:35.530Z,99188.56
2023-12-23T01:27:07.039Z,99200.88
2023-12-23T01:27:38.574Z,99204.38
2023-12-23T01:28:10.192Z,99200.88
2023-12-23T01:28:41.813Z,99197.53
2023-12-23T01:29:13.435Z,99205.50
2023-12-23T01:29:44.959Z,99201.16
2023-12-23T01:30:16.698Z,99199.47
2023-12-23T01:30:48.268Z,99196.81
2023-12-23T01:31:19.791Z,99197.69
2023-12-23T01:31:51.711Z,99196.13
2023-12-23T01:32:23.371Z,99185.22
2023-12-23T01:32:54.965Z,99189.72
2023-12-23T01:33:26.689Z,99198.66
2023-12-23T01:33:58.348Z,99196.81
2023-12-23T01:34:30.012Z,99201.44
2023-12-23T01:35:01.722Z,99204.78
2023-12-23T01:35:33.279Z,99200.34
2023-12-23T01:36:04.878Z,99198.78
2023-12-23T01:36:36.339Z,99201.31
2023-12-23T01:37:07.864Z,99202.13
2023-12-23T01:37:39.452Z,99192.50
2023-12-23T01:38:11.039Z,99199.47
2023-12-23T01:38:42.594Z,99199.34
2023-12-23T01:39:14.221Z,99199.47
2023-12-23T01:39:45.782Z,99196.97
2023-12-23T01:40:17.324Z,99204.09
2023-12-23T01:40:48.918Z,99197.81
2023-12-23T01:41:20.564Z,99200.47
2023-12-23T01:41:52.104Z,99202.28
2023-12-23T01:42:23.626Z,99207.56
2023-12-23T01:42:55.126Z,99204.78
2023-12-23T01:43:26.841Z,99211.78
2023-12-23T01:43:58.457Z,99203.13
2023-12-23T01:44:30.276Z,99208.28
2023-12-23T01:45:01.820Z,99208.28
2023-12-23T01:45:36.241Z,99207.44
2023-12-23T01:46:08.076Z,99217.91
2023-12-23T01:46:39.625Z,99214.56
2023-12-23T01:47:11.273Z,99218.06
2023-12-23T01:47:43.473Z,99219.75
2023-12-23T01:48:15.185Z,99211.09
2023-12-23T01:48:46.827Z,99204.78
2023-12-23T01:49:18.508Z,99203.97
2023-12-23T01:49:50.094Z,99195.03
2023-12-23T01:50:21.813Z,99204.78
2023-12-23T01:50:53.562Z,99207.31
2023-12-23T01:51:25.138Z,99217.91
2023-12-23T01:51:56.822Z,99204.78
2023-12-23T01:52:28.493Z,99217.91
2023-12-23T01:53:00.069Z,99210.09
2023-12-23T01:53:32.068Z,99219.88
2023-12-23T01:54:05.995Z,99210.09
2023-12-23T01:54:37.483Z,99216.25
2023-12-23T01:55:09.310Z,99212.75
2023-12-23T01:55:40.867Z,99207.56
2023-12-23T01:56:12.466Z,99205.78
2023-12-23T01:56:43.980Z,99214.72
2023-12-23T01:57:15.533Z,99211.09
2023-12-23T01:57:47.131Z,99208.44
2023-12-23T01:58:18.733Z,99209.25
2023-12-23T01:58:50.318Z,99210.09
2023-12-23T01:59:21.925Z,99200.63
2023-12-23T01:59:53.514Z,99203.97
2023-12-23T02:00:25.077Z,99197.81
2023-12-23T02:00:56.705Z,99208.44
2023-12-23T02:01:28.434Z,99209.25
2023-12-23T02:02:00.280Z,99218.06
2023-12-23T02:02:31.930Z,99213.59
2023-12-23T02:03:03.950Z,99216.25
2023-12-23T02:03:35.616Z,99210.09
2023-12-23T02:04:07.121Z,99212.59
2023-12-23T02:04:39.043Z,99207.31
2023-12-23T02:05:10.635Z,99214.56
2023-12-23T02:05:42.498Z,99204.78
2023-12-23T02:06:14.224Z,99211.91
2023-12-23T02:06:45.789Z,99223.38
2023-12-23T02:07:17.389Z,99220.72
2023-12-23T02:07:48.905Z,99217.22
2023-12-23T02:08:20.537Z,99217.22
2023-12-23T02:08:52.309Z,99211.09
2023-12-23T02:09:23.878Z,99212.75
2023-12-23T02:09:55.451Z,99215.41
2023-12-23T02:10:27.019Z,99216.25
2023-12-23T02:11:01.202Z,99219.75
2023-12-23T02:11:32.716Z,99205.50
2023-12-23T02:12:08.602Z,99213.47
2023-12-23T02:13:05.687Z,99209.81
2023-12-23T02:13:46.968Z,99208.16
2023-12-23T02:14:20.619Z,99211.78
2023-12-23T02:15:02.423Z,99203.81
2023-12-23T02:15:34.089Z,99205.66
2023-12-23T02:16:05.748Z,99202.00
2023-12-23T02:16:37.318Z,99201.84
2023-12-23T02:17:09.436Z,99196.81
2023-12-23T02:17:41.326Z,99200.19
2023-12-23T02:18:13.061Z,99204.50
2023-12-23T02:18:44.784Z,99197.53
2023-12-23T02:19:16.311Z,99196.69
2023-12-23T02:19:48.043Z,99185.22
2023-12-23T02:20:19.832Z,99202.84
2023-12-23T02:20:51.545Z,99193.06
2023-12-23T02:21:23.155Z,99181.63
2023-12-23T02:21:54.707Z,99184.28
2023-12-23T02:22:26.140Z,99184.97
2023-12-23T02:22:57.709Z,99184.13
2023-12-23T02:23:29.316Z,99182.31
2023-12-23T02:24:00.831Z,99174.47
2023-12-23T02:24:32.310Z,99178.81
2023-12-23T02:25:03.897Z,99179.94
2023-12-23T02:25:35.428Z,99177.97
2023-12-23T02:26:06.988Z,99179.94
2023-12-23T02:26:38.634Z,99185.22
2023-12-23T02:27:10.597Z,99181.63
2023-12-23T02:27:44.327Z,99179.94
2023-12-23T02:28:15.881Z,99180.75
2023-12-23T02:28:47.436Z,99177.97
2023-12-23T02:29:19.080Z,99181.47
2023-12-23T02:29:51.287Z,99172.66
2023-12-23T02:30:23.330Z,99184.41
2023-12-23T02:30:55.122Z,99178.25
2023-12-23T02:31:26.754Z,99176.44
2023-12-23T02:31:58.301Z,99180.91
2023-12-23T02:32:29.959Z,99172.94
2023-12-23T02:33:01.606Z,99174.47
2023-12-23T02:33:33.243Z,99171.81
2023-12-23T02:34:04.871Z,99177.00
2023-12-23T02:34:36.490Z,99179.78
2023-12-23T02:35:08.210Z,99177.41
2023-12-23T02:35:39.750Z,99175.59
2023-12-23T02:36:11.310Z,99176.31
2023-12-23T02:36:42.824Z,99180.63
2023-12-23T02:37:14.322Z,99171.97
2023-12-23T02:37:45.812Z,99177.28
2023-12-23T02:38:17.514Z,99172.78
2023-12-23T02:38:49.408Z,99178.25
2023-12-23T02:39:20.961Z,99167.63
2023-12-23T02:39:52.636Z,99164.84
2023-12-23T02:40:24.174Z,99165.69
2023-12-23T02:40:55.700Z,99155.91
2023-12-23T02:41:27.222Z,99162.03
2023-12-23T02:41:58.719Z,99159.53
2023-12-23T02:42:30.299Z,99163.03
2023-12-23T02:43:01.834Z,99156.72
2023-12-23T02:43:33.505Z,99164.84
2023-12-23T02:44:05.013Z,99155.91
2023-12-23T02:44:36.516Z,99153.78
2023-12-23T02:45:08.322Z,99144.47
2023-12-23T02:45:39.813Z,99153.09
2023-12-23T02:46:11.368Z,99151.41
2023-12-23T02:46:42.940Z,99155.06
2023-12-23T02:47:14.528Z,99149.75
2023-12-23T02:47:46.119Z,99149.75
2023-12-23T02:48:17.759Z,99144.47
2023-12-23T02:48:49.443Z,99155.06
2023-12-23T02:49:20.990Z,99154.34
2023-12-23T02:49:52.709Z,99153.53
2023-12-23T02:50:24.340Z,99156.03
2023-12-23T02:50:55.786Z,99148.75
2023-12-23T02:51:27.254Z,99143.47
2023-12-23T02:51:58.843Z,99146.09
2023-12-23T02:52:30.386Z,99140.81
2023-12-23T02:53:02.016Z,99134.66
2023-12-23T02:53:33.632Z,99150.59
2023-12-23T02:54:05.270Z,99146.25
2023-12-23T02:54:36.813Z,99147.09
2023-12-23T02:55:08.365Z,99153.25
2023-12-23T02:55:40.053Z,99139.97
2023-12-23T02:56:11.558Z,99144.47
2023-12-23T02:56:43.173Z,99141.94
2023-12-23T02:57:14.653Z,99135.78
2023-12-23T02:57:46.191Z,99131.47
2023-12-23T02:58:17.685Z,99130.47
2023-12-23T02:58:49.258Z,99138.28
2023-12-23T02:59:20.988Z,99135.50
2023-12-23T02:59:52.538Z,99135.63
2023-12-23T03:00:24.072Z,99134.66
2023-12-23T03:00:55.557Z,99133.84
2023-12-23T03:01:27.056Z,99127.53
2023-12-23T03:01:58.532Z,99129.34
2023-12-23T03:02:30.115Z,99125.88
2023-12-23T03:03:01.773Z,99121.53
2023-12-23T03:03:33.426Z,99123.22
2023-12-23T03:04:04.956Z,99120.44
2023-12-23T03:04:36.457Z,99122.06
2023-12-23T03:05:08.314Z,99117.59
2023-12-23T03:05:39.978Z,99122.06
2023-12-23T03:06:14.652Z,99126.56
2023-12-23T03:06:46.227Z,99123.06
2023-12-23T03:07:17.777Z,99118.47
2023-12-23T03:07:49.394Z,99115.94
2023-12-23T03:08:21.050Z,99120.44
2023-12-23T03:08:52.691Z,99122.91
2023-12-23T03:09:24.141Z,99117.59
2023-12-23T03:09:55.864Z,99113.16
2023-12-23T03:10:27.315Z,99115.13
2023-12-23T03:10:58.880Z,99122.91
2023-12-23T03:11:30.477Z,99121.78
2023-12-23T03:12:02.070Z,99116.63
2023-12-23T03:12:33.623Z,99121.09
2023-12-23T03:13:05.284Z,99115.13
2023-12-23T03:13:36.853Z,99118.59
2023-12-23T03:14:08.367Z,99109.63
2023-12-23T03:14:40.893Z,99110.34
2023-12-23T03:15:12.402Z,99110.34
2023-12-23T03:15:43.973Z,99096.34
2023-12-23T03:16:15.813Z,99109.63
2023-12-23T03:16:47.322Z,99110.22
2023-12-23T03:17:19.086Z,99100.28
2023-12-23T03:17:50.781Z,99098.03
2023-12-23T03:18:22.427Z,99096.06
2023-12-23T03:18:53.997Z,99091.91
2023-12-23T03:19:25.636Z,99094.72
2023-12-23T03:19:57.294Z,99093.72
2023-12-23T03:20:28.791Z,99093.41
2023-12-23T03:21:00.366Z,99084.63
2023-12-23T03:21:31.866Z,99090.09
2023-12-23T03:22:03.487Z,99099.72
2023-12-23T03:22:35.137Z,99094.28
2023-12-23T03:23:06.711Z,99083.81
2023-12-23T03:23:38.272Z,99095.25
2023-12-23T03:24:09.893Z,99084.78
2023-12-23T03:24:41.413Z,99087.28
2023-12-23T03:25:13.047Z,99094.44
2023-12-23T03:25:44.569Z,99079.31
2023-12-23T03:26:16.216Z,99085.75
2023-12-23T03:26:47.794Z,99086.59
2023-12-23T03:27:19.328Z,99074.31
2023-12-23T03:27:50.815Z,99085.75
2023-12-23T03:28:22.339Z,99075.13
2023-12-23T03:28:53.797Z,99077.78
2023-12-23T03:29:25.519Z,99079.47
2023-12-23T03:29:57.105Z,99071.78
2023-12-23T03:30:28.623Z,99063.69
2023-12-23T03:31:00.309Z,99073.19
2023-12-23T03:31:31.897Z,99083.81
2023-12-23T03:32:03.411Z,99083.81
2023-12-23T03:32:34.987Z,99089.13
2023-12-23T03:33:06.520Z,99079.19
2023-12-23T03:33:38.144Z,99079.88
2023-12-23T03:34:09.829Z,99081.28
2023-12-23T03:34:41.662Z,99076.81
2023-12-23T03:35:13.208Z,99080.44
2023-12-23T03:35:45.021Z,99084.09
2023-12-23T03:36:17.557Z,99080.44
2023-12-23T03:36:49.178Z,99083.09
2023-12-23T03:37:20.826Z,99076.81
2023-12-23T03:37:52.282Z,99071.50
2023-12-23T03:38:23.871Z,99064.50
2023-12-23T03:38:55.720Z,99065.22
2023-12-23T03:39:27.282Z,99054.75
2023-12-23T03:39:58.931Z,99057.41
2023-12-23T03:40:30.603Z,99053.06
2023-12-23T03:41:02.151Z,99053.88
2023-12-23T03:41:33.687Z,99052.78
2023-12-23T03:42:05.260Z,99042.97
2023-12-23T03:42:36.827Z,99047.63
2023-12-23T03:43:08.405Z,99045.63
2023-12-23T03:43:39.987Z,99049.28
2023-12-23T03:44:11.574Z,99048.28
2023-12-23T03:44:43.200Z,99049.28
2023-12-23T03:45:15.057Z,99051.94
2023-12-23T03:45:46.657Z,99052.63
2023-12-23T03:46:18.769Z,99050.94
2023-12-23T03:46:50.326Z,99050.13
2023-12-23T03:47:21.870Z,99045.63
2023-12-23T03:47:53.343Z,99044.13
2023-12-23T03:48:25.876Z,99046.94
2023-12-23T03:48:57.416Z,99038.97
2023-12-23T03:49:28.981Z,99032.66
2023-12-23T03:50:00.719Z,99034.34
2023-12-23T03:50:32.261Z,99031.00
2023-12-23T03:51:03.921Z,99030.84
2023-12-23T03:51:35.490Z,99032.66
2023-12-23T03:52:07.069Z,99023.03
2023-12-23T03:52:38.581Z,99025.69
2023-12-23T03:53:10.265Z,99029.31
2023-12-23T03:53:41.943Z,99031.00
2023-12-23T03:54:13.579Z,99017.88
2023-12-23T03:54:45.157Z,99019.69
2023-12-23T03:55:16.724Z,99014.25
2023-12-23T03:55:48.231Z,99017.06
2023-12-23T03:56:19.778Z,99006.44
2023-12-23T03:56:52.182Z,99014.25
2023-12-23T03:57:24.030Z,99017.06
2023-12-23T03:57:56.032Z,99017.06
2023-12-23T03:58:27.762Z,99010.88
2023-12-23T03:58:59.504Z,99015.22
2023-12-23T03:59:31.197Z,99009.78
2023-12-23T04:00:02.993Z,99014.25
2023-12-23T04:00:34.541Z,99010.59
2023-12-23T04:01:06.088Z,99008.09
2023-12-23T04:01:37.718Z,99009.78
2023-12-23T04:02:09.307Z,99005.44
2023-12-23T04:02:40.889Z,99007.25
2023-12-23T04:03:12.543Z,99000.25
2023-12-23T04:03:44.023Z,99002.78
2023-12-23T04:04:15.467Z,98994.81
2023-12-23T04:04:47.038Z,98999.00
2023-12-23T04:05:18.599Z,98999.16
2023-12-23T04:05:50.163Z,98998.16
2023-12-23T04:06:21.736Z,98995.50
2023-12-23T04:06:53.518Z,98997.19
2023-12-23T04:07:25.039Z,99001.66
2023-12-23T04:07:56.549Z,98996.34
2023-12-23T04:08:28.104Z,98992.84
2023-12-23T04:08:59.632Z,98998.31
2023-12-23T04:09:31.119Z,98993.84
2023-12-23T04:10:02.641Z,98992.16
2023-12-23T04:10:34.127Z,98983.22
2023-12-23T04:11:05.844Z,98991.03
2023-12-23T04:11:37.414Z,98982.41
2023-12-23T04:12:10.305Z,98979.56
2023-12-23T04:12:41.823Z,98982.22
2023-12-23T04:13:13.434Z,98988.53
2023-12-23T04:13:45.044Z,98979.56
2023-12-23T04:14:16.761Z,98972.59
2023-12-23T04:14:48.371Z,98973.59
2023-12-23T04:15:20.032Z,98978.06
2023-12-23T04:15:51.638Z,98974.59
2023-12-23T04:16:23.257Z,98974.44
2023-12-23T04:16:54.837Z,98966.28
2023-12-23T04:17:26.440Z,98973.59
2023-12-23T04:17:58.085Z,98972.59
2023-12-23T04:18:29.756Z,98974.44
2023-12-23T04:19:01.541Z,98963.66
2023-12-23T04:19:33.437Z,98970.94
2023-12-23T04:20:05.286Z,98974.25
2023-12-23T04:20:36.929Z,98970.63
2023-12-23T04:21:08.484Z,98963.34
2023-12-23T04:21:40.203Z,98969.81
2023-12-23T04:22:11.717Z,98956.38
2023-12-23T04:22:43.293Z,98962.53
2023-12-23T04:23:15.054Z,98957.22
2023-12-23T04:23:46.574Z,98959.19
2023-12-23T04:24:18.205Z,98963.09
2023-12-23T04:24:49.750Z,98954.19
2023-12-23T04:25:22.958Z,98960.31
2023-12-23T04:25:54.943Z,98959.34
2023-12-23T04:26:26.530Z,98950.69
2023-12-23T04:26:58.106Z,98963.97
2023-12-23T04:27:29.668Z,98955.84
2023-12-23T04:28:01.194Z,98952.19
2023-12-23T04:28:32.849Z,98958.34
2023-12-23T04:29:04.780Z,98972.31
2023-12-23T04:29:36.376Z,98952.19
2023-12-23T04:30:08.049Z,98946.91
2023-12-23T04:30:39.916Z,98948.88
2023-12-23T04:31:11.601Z,98944.69
2023-12-23T04:31:43.211Z,98928.75
2023-12-23T04:32:14.782Z,98947.19
2023-12-23T04:32:46.526Z,98939.22
2023-12-23T04:33:18.440Z,98925.94
2023-12-23T04:33:50.058Z,98936.56
2023-12-23T04:34:21.705Z,98931.25
2023-12-23T04:34:53.289Z,98934.78
2023-12-23T04:35:24.892Z,98926.81
2023-12-23T04:35:56.402Z,98927.63
2023-12-23T04:36:27.963Z,98934.78
2023-12-23T04:36:59.415Z,98914.50
2023-12-23T04:37:30.961Z,98930.44
2023-12-23T04:38:02.595Z,98933.22
2023-12-23T04:38:34.206Z,98918.44
2023-12-23T04:39:05.757Z,98924.44
2023-12-23T04:39:37.274Z,98915.47
2023-12-23T04:40:09.286Z,98924.44
2023-12-23T04:40:41.142Z,98923.44
2023-12-23T04:41:12.722Z,98923.44
2023-12-23T04:41:44.262Z,98918.13
2023-12-23T04:42:15.865Z,98926.97
2023-12-23T04:42:47.536Z,98919.81
2023-12-23T04:43:19.143Z,98919.00
2023-12-23T04:43:50.715Z,98921.50
2023-12-23T04:44:22.445Z,98911.72
2023-12-23T04:44:53.967Z,98912.53
2023-12-23T04:45:25.481Z,98910.03
2023-12-23T04:45:57.135Z,98916.19
2023-12-23T04:46:28.660Z,98903.06
2023-12-23T04:47:00.274Z,98914.50
2023-12-23T04:47:31.893Z,98915.34
2023-12-23T04:48:03.820Z,98909.34
2023-12-23T04:48:35.349Z,98905.72
2023-12-23T04:49:07.080Z,98908.38
2023-12-23T04:49:39.084Z,98912.81
2023-12-23T04:50:10.683Z,98909.50
2023-12-23T04:50:42.292Z,98905.72
2023-12-23T04:51:13.886Z,98902.91
2023-12-23T04:51:45.388Z,98902.78
2023-12-23T04:52:16.880Z,98910.88
2023-12-23T04:52:48.664Z,98899.41
2023-12-23T04:53:22.595Z,98907.22
2023-12-23T04:53:54.218Z,98913.53
2023-12-23T04:54:25.829Z,98899.25
2023-12-23T04:54:57.326Z,98909.06
2023-12-23T04:55:28.862Z,98913.38
2023-12-23T04:56:00.416Z,98908.22
2023-12-23T04:56:31.970Z,98907.22
2023-12-23T04:57:03.570Z,98902.91
2023-12-23T04:57:35.118Z,98907.22
2023-12-23T04:58:06.645Z,98899.13
2023-12-23T04:58:38.195Z,98908.09
2023-12-23T04:59:09.854Z,98905.44
2023-12-23T04:59:41.380Z,98908.91
2023-12-23T05:00:13.206Z,98906.41
2023-12-23T05:00:44.823Z,98902.59
2023-12-23T05:01:16.422Z,98892.16
2023-12-23T05:01:48.039Z,98899.41
2023-12-23T05:02:19.636Z,98897.91
2023-12-23T05:02:51.653Z,98904.88
2023-12-23T05:03:23.393Z,98904.19
2023-12-23T05:03:55.028Z,98901.38
2023-12-23T05:04:26.536Z,98911.19
2023-12-23T05:04:58.062Z,98900.56
2023-12-23T05:05:29.659Z,98904.19
2023-12-23T05:06:01.326Z,98903.22
2023-12-23T05:06:32.812Z,98907.53
2023-12-23T05:07:04.426Z,98898.72
2023-12-23T05:07:35.985Z,98907.53
2023-12-23T05:08:07.678Z,98902.22
2023-12-23T05:08:39.253Z,98903.22
2023-12-23T05:09:10.697Z,98889.94
2023-12-23T05:09:42.311Z,98901.38
2023-12-23T05:10:13.955Z,98891.59
2023-12-23T05:10:45.500Z,98888.94
2023-12-23T05:11:17.136Z,98901.38
2023-12-23T05:11:48.858Z,98884.63
2023-12-23T05:12:20.482Z,98896.06
2023-12-23T05:12:52.246Z,98888.25
2023-12-23T05:13:23.917Z,98888.78
2023-12-23T05:13:55.472Z,98897.75
2023-12-23T05:14:27.141Z,98879.31
2023-12-23T05:14:58.676Z,98891.59
2023-12-23T05:15:30.227Z,98897.63
2023-12-23T05:16:01.808Z,98881.97
2023-12-23T05:16:33.437Z,98898.59
2023-12-23T05:17:05.189Z,98880.16
2023-12-23T05:17:36.916Z,98870.66
2023-12-23T05:18:08.827Z,98888.25
2023-12-23T05:18:40.556Z,98872.34
2023-12-23T05:19:12.261Z,98875.97
2023-12-23T05:19:43.974Z,98886.59
2023-12-23T05:20:15.635Z,98889.25
2023-12-23T05:20:47.238Z,98902.22
2023-12-23T05:21:18.747Z,98887.28
2023-12-23T05:21:50.311Z,98887.28
2023-12-23T05:22:21.880Z,98894.25
2023-12-23T05:22:53.853Z,98888.94
2023-12-23T05:23:25.793Z,98880.97
2023-12-23T05:23:57.395Z,98886.28
2023-12-23T05:24:28.900Z,98881.84
2023-12-23T05:25:00.410Z,98892.44
2023-12-23T05:25:31.932Z,98878.19
2023-12-23T05:26:03.522Z,98894.25
2023-12-23T05:26:35.102Z,98891.59
2023-12-23T05:27:07.187Z,98893.28
2023-12-23T05:27:38.767Z,98893.28
2023-12-23T05:28:10.324Z,98893.28
2023-12-23T05:28:42.013Z,98887.16
2023-12-23T05:29:13.699Z,98886.28
2023-12-23T05:29:45.293Z,98885.31
2023-12-23T05:30:16.781Z,98888.94
2023-12-23T05:30:48.341Z,98889.78
2023-12-23T05:31:19.980Z,98882.66
2023-12-23T05:31:51.582Z,98905.56
2023-12-23T05:32:23.062Z,98886.00
2023-12-23T05:32:55.048Z,98884.34
2023-12-23T05:33:26.885Z,98874.69
2023-12-23T05:33:58.521Z,98884.34
2023-12-23T05:34:30.212Z,98883.34
2023-12-23T05:35:01.837Z,98868.28
2023-12-23T05:35:33.361Z,98877.22
2023-12-23T05:36:05.071Z,98881.84
2023-12-23T05:36:36.570Z,98888.78
2023-12-23T05:37:08.104Z,98887.97
2023-12-23T05:37:39.678Z,98871.22
2023-12-23T05:38:11.284Z,98876.53
2023-12-23T05:38:42.795Z,98875.81
2023-12-23T05:39:14.315Z,98878.47
2023-12-23T05:39:45.806Z,98884.94
2023-12-23T05:40:17.377Z,98882.13
2023-12-23T05:40:48.886Z,98889.09
2023-12-23T05:41:20.411Z,98877.50
2023-12-23T05:41:52.006Z,98871.50
2023-12-23T05:42:23.593Z,98872.34
2023-12-23T05:42:55.068Z,98889.09
2023-12-23T05:43:26.578Z,98882.97
2023-12-23T05:43:58.093Z,98867.03
2023-12-23T05:44:29.726Z,98881.28
2023-12-23T05:45:01.245Z,98872.19
2023-12-23T05:45:32.768Z,98877.50
2023-12-23T05:46:04.337Z,98877.34
2023-12-23T05:46:35.928Z,98887.16
2023-12-23T05:47:07.514Z,98877.66
2023-12-23T05:47:39.084Z,98876.69
2023-12-23T05:48:10.930Z,98882.97
2023-12-23T05:48:42.605Z,98879.47
2023-12-23T05:49:14.203Z,98878.31
2023-12-23T05:49:45.719Z,98876.69
2023-12-23T05:50:17.561Z,98874.03
2023-12-23T05:50:49.115Z,98874.03
2023-12-23T05:51:20.647Z,98877.50
2023-12-23T05:51:54.913Z,98886.28
2023-12-23T05:52:26.482Z,98867.03
2023-12-23T05:52:57.943Z,98874.03
2023-12-23T05:53:29.518Z,98871.50
2023-12-23T05:54:01.068Z,98863.41
2023-12-23T05:54:32.520Z,98879.31
2023-12-23T05:55:04.239Z,98866.06
2023-12-23T05:55:35.854Z,98883.25
2023-12-23T05:56:07.762Z,98877.94
2023-12-23T05:56:39.462Z,98877.94
2023-12-23T05:57:11.058Z,98868.00
2023-12-23T05:57:42.601Z,98877.66
2023-12-23T05:58:14.099Z,98875.16
2023-12-23T05:58:45.614Z,98875.00
2023-12-23T05:59:17.326Z,98878.63
2023-12-23T05:59:49.327Z,98883.94
2023-12-23T06:00:20.998Z,98873.16
2023-12-23T06:00:52.764Z,98877.50
2023-12-23T06:01:24.323Z,98867.03
2023-12-23T06:01:55.992Z,98878.47
2023-12-23T06:02:27.653Z,98871.22
2023-12-23T06:02:59.243Z,98881.84
2023-12-23T06:03:30.772Z,98884.63
2023-12-23T06:04:02.333Z,98866.06
2023-12-23T06:04:34.138Z,98879.31
2023-12-23T06:05:05.900Z,98874.31
2023-12-23T06:05:37.621Z,98883.78
2023-12-23T06:06:09.879Z,98880.31
2023-12-23T06:06:41.338Z,98875.00
2023-12-23T06:07:12.824Z,98883.63
2023-12-23T06:07:44.380Z,98875.66
2023-12-23T06:08:15.976Z,98867.72
2023-12-23T06:08:47.515Z,98880.97
2023-12-23T06:09:19.012Z,98879.31
2023-12-23T06:09:50.506Z,98883.78
2023-12-23T06:10:22.213Z,98881.97
2023-12-23T06:10:58.065Z,98876.81
2023-12-23T06:11:30.470Z,98873.16
2023-12-23T06:12:01.968Z,98876.69
2023-12-23T06:12:33.557Z,98867.03
2023-12-23T06:13:05.127Z,98880.97